This is the latest recevied weather packets stored in our database for station/object I3RKE-10. If no packets are shown the sender has not sent any weather packets the latest 10 day(s).
| Time | Temp. | Humidity | Pressure | Rain* | Wind** | Luminosity | Snow |
|---|---|---|---|---|---|---|---|
| 1777578957 | 12.22° C | 48% | 1019.4 hPa | - | - | - | - |
| 1777578057 | 12.78° C | 45% | 1019.2 hPa | - | - | - | - |
| 1777577157 | 13.89° C | 40% | 1018.9 hPa | - | - | - | - |
| 1777576290 | 16.67° C | 27% | 1018.5 hPa | - | - | - | - |
| 1777576257 | 16.67° C | 27% | 1018.5 hPa | - | - | - | - |
| 1777575357 | 17.78° C | 26% | 1018.3 hPa | - | - | - | - |
| 1777574457 | 17.78° C | 26% | 1018.1 hPa | - | - | - | - |
| 1777573557 | 18.33° C | 25% | 1017.9 hPa | - | - | - | - |
| 1777572657 | 18.89° C | 24% | 1017.8 hPa | - | - | - | - |
| 1777571757 | 20° C | 23% | 1017.7 hPa | - | - | - | - |
| 1777570857 | 22.22° C | 20% | 1017.4 hPa | - | - | - | - |
| 1777569956 | 25.56° C | 17% | 1017.4 hPa | - | - | - | - |
| 1777569056 | 28.89° C | 14% | 1017.3 hPa | - | - | - | - |
| 1777568156 | 31.67° C | 13% | 1017.1 hPa | - | - | - | - |
| 1777567256 | 31.67° C | 13% | 1017.1 hPa | - | - | - | - |
| 1777566356 | 32.22° C | 13% | 1017 hPa | - | - | - | - |
| 1777565456 | 31.67° C | 14% | 1017 hPa | - | - | - | - |
| 1777564556 | 32.78° C | 13% | 1017 hPa | - | - | - | - |
| 1777563656 | 25° C | 19% | 1017 hPa | - | - | - | - |
| 1777562756 | 32.78° C | 13% | 1017 hPa | - | - | - | - |
| 1777561856 | 26.67° C | 18% | 1016.9 hPa | - | - | - | - |
| 1777560955 | 26.11° C | 18% | 1016.9 hPa | - | - | - | - |
| 1777560055 | 25° C | 19% | 1016.8 hPa | - | - | - | - |
| 1777559155 | 23.89° C | 21% | 1016.8 hPa | - | - | - | - |
| 1777558255 | 25° C | 20% | 1016.9 hPa | - | - | - | - |
* Rain since midnight (hover to see other rain measurements)
** Current wind speed in m/s (hover to see current wind gust speed)